Terminal Aerodrome Forecast
Issued by NWS Cleveland, OH

Home | Current Version | Previous Version | Text Only | Print | Product List | Glossary Off
Versions: 1 2 3 4 5 6 7 8 9 10 11 12 13 14 15 16 17 18 19 20 21 22 23 24 25 26 27

000
FTUS41 KCLE 192102 AAB
TAFCLE
TAF AMD
KCLE 192102Z 1921/2024 01010KT P6SM VCSH BKN035
     FM192200 04010KT P6SM -SHRA VCTS SCT025CB BKN035CB
     FM200200 05008KT P6SM OVC035
     FM200900 07010KT P6SM BKN035
     FM201600 06010KT P6SM BKN025
     FM202100 06010KT P6SM VCSH SCT025 BKN035=

USA.gov is the U.S. government's official web portal to all federal, state and local government web resources and services.